Time;durP1;ratioP1;P1;durP2;ratioP2;P2;SDS_P1;SDS_P2;PMS_P1;PMS_P2;Temp;Humidity;BMP_temperature;BMP_pressure;BME280_temperature;BME280_humidity;BME280_pressure;Samples;Min_cycle;Max_cycle;Signal;HPM_P1;HPM_P2
2022/11/16 00:01:45;;;;;;;66.40;32.90;;;;;;;8.81;94.96;97891.17;214371;1310;25285;-73
2022/11/16 00:06:48;;;;;;;73.40;35.20;;;;;;;8.75;95.15;97881.23;214044;1310;24265;-73
2022/11/16 00:12:02;;;;;;;73.00;34.60;;;;;;;8.66;95.33;97872.30;214353;1310;22631;-73
2022/11/16 00:17:05;;;;;;;72.90;35.80;;;;;;;8.60;95.71;97868.68;214180;1300;22473;-73
2022/11/16 00:22:06;;;;;;;85.90;41.30;;;;;;;8.51;96.04;97869.55;214279;1310;23750;-72
2022/11/16 00:27:08;;;;;;;78.90;41.30;;;;;;;8.49;96.88;97869.27;214354;1305;22478;-73
2022/11/16 00:32:11;;;;;;;82.70;40.00;;;;;;;8.52;97.66;97869.59;214125;1309;25464;-73
2022/11/16 00:37:13;;;;;;;85.30;41.40;;;;;;;8.53;98.09;97869.30;214160;1310;24324;-73
2022/11/16 00:42:15;;;;;;;89.10;41.00;;;;;;;8.53;98.32;97869.30;214489;1310;22506;-72
2022/11/16 00:47:17;;;;;;;80.10;40.00;;;;;;;8.51;98.55;97863.89;214282;1310;22602;-73
2022/11/16 00:52:19;;;;;;;76.00;38.50;;;;;;;8.45;98.55;97858.92;214278;1310;22542;-73
2022/11/16 00:57:21;;;;;;;81.40;40.90;;;;;;;8.40;98.78;97850.30;214331;1309;24081;-72
2022/11/16 01:02:24;;;;;;;84.00;38.50;;;;;;;8.37;99.05;97848.61;214338;1310;24253;-72
2022/11/16 01:07:26;;;;;;;75.30;36.50;;;;;;;8.35;99.43;97842.59;214271;1310;24255;-73
2022/11/16 01:12:28;;;;;;;69.60;34.90;;;;;;;8.35;99.57;97835.94;214427;1310;22469;-72
2022/11/16 01:17:30;;;;;;;62.20;30.70;;;;;;;8.34;99.80;97841.23;214450;1304;22638;-74
2022/11/16 01:22:36;;;;;;;57.80;29.20;;;;;;;8.26;99.21;97833.50;214172;1309;22498;-72
2022/11/16 01:27:39;;;;;;;61.60;30.50;;;;;;;8.14;99.09;97827.37;214317;1310;22825;-71
2022/11/16 01:32:46;;;;;;;63.00;30.30;;;;;;;8.07;99.32;97823.33;214111;1310;23236;-71
2022/11/16 01:37:49;;;;;;;69.00;33.60;;;;;;;8.07;99.86;97818.36;214313;1306;22528;-72
2022/11/16 01:42:51;;;;;;;69.60;35.00;;;;;;;8.12;100.00;97806.85;214256;1310;24334;-72
2022/11/16 01:47:54;;;;;;;73.00;35.40;;;;;;;8.16;100.00;97805.23;214233;1310;22686;-71
2022/11/16 01:53:04;;;;;;;68.10;34.20;;;;;;;8.18;100.00;97801.61;214298;1310;26153;-72
2022/11/16 01:58:18;;;;;;;72.40;36.70;;;;;;;8.20;100.00;97789.96;214279;1310;22470;-71
2022/11/16 02:03:26;;;;;;;63.60;32.60;;;;;;;8.19;100.00;97779.61;214353;1306;24078;-71
2022/11/16 02:14:19;;;;;;;58.70;28.80;;;;;;;7.98;100.00;97766.67;214177;1310;23732;-71
2022/11/16 02:19:59;;;;;;;55.70;28.40;;;;;;;7.92;100.00;97762.42;214315;1310;26058;-72
2022/11/16 02:25:04;;;;;;;57.80;28.10;;;;;;;7.89;100.00;97765.10;214270;1306;22473;-71
2022/11/16 02:30:07;;;;;;;63.90;31.00;;;;;;;7.88;100.00;97763.39;214190;1310;23200;-71
2022/11/16 02:35:35;;;;;;;63.30;31.60;;;;;;;7.86;100.00;97762.10;214236;1310;22510;-71
2022/11/16 02:40:45;;;;;;;61.00;30.80;;;;;;;7.84;100.00;97761.39;214319;1303;22485;-71
2022/11/16 02:45:54;;;;;;;61.00;28.90;;;;;;;7.81;100.00;97756.55;214086;1309;23769;-71
2022/11/16 02:50:56;;;;;;;51.10;26.20;;;;;;;7.78;100.00;97753.03;214166;1310;22469;-71
2022/11/16 02:55:58;;;;;;;51.20;25.50;;;;;;;7.75;100.00;97750.20;214097;1310;22514;-72
2022/11/16 03:01:17;;;;;;;51.60;25.10;;;;;;;7.72;100.00;97747.09;214285;1310;23252;-71
2022/11/16 03:06:28;;;;;;;47.70;22.00;;;;;;;7.70;100.00;97748.27;214341;1310;22477;-71
2022/11/16 03:16:56;;;;;;;43.30;21.50;;;;;;;7.67;100.00;97751.61;214091;1298;22479;-70
2022/11/16 03:22:03;;;;;;;45.70;22.10;;;;;;;7.67;100.00;97745.11;214357;1310;23354;-70
2022/11/16 03:27:20;;;;;;;43.60;21.50;;;;;;;7.64;100.00;97735.98;214320;1310;24285;-72
2022/11/16 03:32:35;;;;;;;39.30;20.40;;;;;;;7.62;100.00;97741.88;214401;1310;22519;-71
2022/11/16 03:37:42;;;;;;;45.90;21.10;;;;;;;7.61;100.00;97738.34;214355;1310;25216;-71
2022/11/16 03:42:48;;;;;;;46.70;20.60;;;;;;;7.61;100.00;97726.66;214208;1310;22478;-70
2022/11/16 03:47:51;;;;;;;42.10;19.80;;;;;;;7.62;100.00;97723.04;214133;1310;22595;-72
2022/11/16 03:52:54;;;;;;;41.80;20.00;;;;;;;7.62;100.00;97711.77;214281;1310;25689;-71
2022/11/16 03:57:57;;;;;;;42.50;21.10;;;;;;;7.62;100.00;97703.56;214178;1310;25289;-71
2022/11/16 04:02:59;;;;;;;40.50;19.00;;;;;;;7.62;100.00;97699.99;214261;1298;22480;-72
2022/11/16 04:24:19;;;;;;;37.50;17.70;;;;;;;7.60;100.00;97682.19;214347;1310;24480;-70
2022/11/16 04:29:21;;;;;;;31.40;15.40;;;;;;;7.60;100.00;97673.76;214178;1310;25480;-71
2022/11/16 04:39:44;;;;;;;36.30;15.70;;;;;;;7.61;100.00;97657.27;214308;1301;22685;-70
2022/11/16 04:50:12;;;;;;;26.60;11.60;;;;;;;7.63;100.00;97647.05;214365;1300;22484;-70
2022/11/16 04:55:14;;;;;;;23.90;13.10;;;;;;;7.66;100.00;97642.40;214411;1310;24675;-71
2022/11/16 05:00:18;;;;;;;28.40;13.30;;;;;;;7.68;100.00;97629.20;214326;1309;23769;-71
2022/11/16 05:05:20;;;;;;;28.50;13.20;;;;;;;7.71;100.00;97627.85;214348;1300;22461;-69
2022/11/16 05:10:23;;;;;;;27.70;13.20;;;;;;;7.75;100.00;97630.23;214491;1303;25406;-70
2022/11/16 05:15:26;;;;;;;24.00;13.10;;;;;;;7.78;100.00;97630.44;214403;1310;26420;-70
2022/11/16 05:25:49;;;;;;;24.10;12.10;;;;;;;7.79;100.00;97626.05;214362;1310;24275;-71
2022/11/16 05:30:51;;;;;;;22.80;12.00;;;;;;;7.72;100.00;97620.80;214380;1310;25400;-71
2022/11/16 05:35:56;;;;;;;26.90;13.00;;;;;;;7.69;100.00;97619.89;214154;1310;22934;-71
2022/11/16 05:40:58;;;;;;;26.50;13.40;;;;;;;7.73;100.00;97623.56;214390;1309;22620;-71
2022/11/16 05:46:00;;;;;;;25.40;12.50;;;;;;;7.77;100.00;97617.71;214100;1310;22473;-71
2022/11/16 05:51:02;;;;;;;28.30;14.00;;;;;;;7.75;100.00;97616.53;214232;1310;24363;-70
2022/11/16 05:56:07;;;;;;;29.30;14.30;;;;;;;7.76;100.00;97613.21;214515;1303;22731;-71
2022/11/16 06:01:11;;;;;;;19.40;11.60;;;;;;;7.76;100.00;97612.73;214164;1296;22649;-70
2022/11/16 06:06:14;;;;;;;24.50;12.80;;;;;;;7.69;100.00;97612.53;214335;1310;22498;-70
2022/11/16 06:11:16;;;;;;;25.10;13.50;;;;;;;7.68;100.00;97618.21;214219;1305;25400;-71
2022/11/16 06:16:19;;;;;;;26.70;12.90;;;;;;;7.69;100.00;97613.20;214163;1310;22462;-69
2022/11/16 06:21:21;;;;;;;25.00;12.50;;;;;;;7.70;100.00;97609.65;214079;1310;22473;-73
2022/11/16 06:26:23;;;;;;;24.90;11.50;;;;;;;7.69;100.00;97615.09;213984;1310;22473;-70
2022/11/16 06:31:25;;;;;;;26.90;13.30;;;;;;;7.66;100.00;97615.75;214388;1310;22498;-70
2022/11/16 06:36:28;;;;;;;25.60;14.10;;;;;;;7.65;100.00;97612.45;214217;1310;23753;-70
2022/11/16 06:41:31;;;;;;;26.80;13.70;;;;;;;7.70;100.00;97614.44;214322;1281;22659;-71
2022/11/16 06:46:34;;;;;;;25.80;12.50;;;;;;;7.70;100.00;97617.52;214574;1284;22481;-71
2022/11/16 06:51:36;;;;;;;27.20;15.00;;;;;;;7.71;100.00;97616.17;214397;1281;25381;-71
2022/11/16 06:56:38;;;;;;;31.20;14.90;;;;;;;7.76;100.00;97617.20;214509;1284;25588;-71
2022/11/16 07:01:41;;;;;;;30.20;15.00;;;;;;;7.77;100.00;97610.85;214636;1296;25384;-70
2022/11/16 07:06:46;;;;;;;28.10;14.50;;;;;;;7.76;100.00;97608.89;214547;1284;23760;-72
2022/11/16 07:11:49;;;;;;;32.90;17.20;;;;;;;7.75;100.00;97609.70;215426;1277;139979;-71
2022/11/16 07:16:53;;;;;;;39.70;19.90;;;;;;;7.78;100.00;97604.98;215522;1284;25386;-72
2022/11/16 07:22:03;;;;;;;41.70;20.60;;;;;;;7.81;100.00;97596.52;214485;1285;138657;-70
2022/11/16 07:27:07;;;;;;;49.50;20.70;;;;;;;7.81;100.00;97589.42;214508;1285;138353;-71
2022/11/16 07:32:10;;;;;;;40.50;18.50;;;;;;;7.79;100.00;97585.90;214794;1284;138705;-69
2022/11/16 07:37:51;;;;;;;40.30;19.20;;;;;;;7.77;100.00;97583.05;214383;1284;138600;-69
2022/11/16 07:42:56;;;;;;;44.40;21.30;;;;;;;7.77;100.00;97578.95;214612;1286;138530;-69
2022/11/16 07:48:05;;;;;;;47.70;23.40;;;;;;;7.80;100.00;97576.50;214701;1286;138580;-69
2022/11/16 07:53:25;;;;;;;40.80;21.30;;;;;;;7.79;100.00;97570.81;214670;1291;138488;-70
2022/11/16 07:58:28;;;;;;;37.60;19.00;;;;;;;7.79;100.00;97567.66;214690;1286;23749;-73
2022/11/16 08:03:32;;;;;;;38.10;19.70;;;;;;;7.82;100.00;97567.07;214605;1287;138391;-70
2022/11/16 08:08:37;;;;;;;46.40;22.10;;;;;;;7.87;100.00;97561.27;214420;1305;138807;-70
2022/11/16 08:13:41;;;;;;;40.90;19.90;;;;;;;7.94;100.00;97561.16;214807;1286;138645;-71
2022/11/16 08:18:44;;;;;;;45.40;21.80;;;;;;;7.97;100.00;97562.04;217633;1290;138807;-70
2022/11/16 08:23:46;;;;;;;46.40;21.00;;;;;;;7.99;100.00;97560.36;214593;1285;138783;-70
2022/11/16 08:28:50;;;;;;;48.30;21.70;;;;;;;8.01;100.00;97557.73;214997;1286;23530;-72
2022/11/16 08:33:53;;;;;;;40.10;19.70;;;;;;;8.07;100.00;97558.10;214775;1284;138327;-71
2022/11/16 08:38:55;;;;;;;49.80;25.20;;;;;;;8.08;100.00;97556.69;215066;1284;138738;-71
2022/11/16 08:43:59;;;;;;;60.40;24.90;;;;;;;8.08;100.00;97553.54;214717;1284;138755;-72
2022/11/16 08:49:01;;;;;;;59.50;27.20;;;;;;;8.04;100.00;97551.52;214634;1292;138747;-72
2022/11/16 08:54:05;;;;;;;70.10;29.20;;;;;;;8.04;100.00;97559.71;214659;1284;138703;-72
2022/11/16 08:59:09;;;;;;;68.50;28.80;;;;;;;8.11;100.00;97562.13;214933;1288;25489;-73
2022/11/16 09:04:14;;;;;;;66.10;29.00;;;;;;;8.16;100.00;97562.92;214380;1284;22733;-72
2022/11/16 09:09:15;;;;;;;65.90;28.10;;;;;;;8.17;100.00;97563.67;214341;1292;138809;-72
2022/11/16 09:14:17;;;;;;;64.20;26.40;;;;;;;8.15;100.00;97563.66;214991;1284;139335;-73
2022/11/16 09:19:19;;;;;;;72.10;29.70;;;;;;;8.14;100.00;97560.32;215001;1287;139127;-72
2022/11/16 09:24:21;;;;;;;64.90;26.50;;;;;;;8.08;100.00;97558.83;214575;1286;139273;-73
2022/11/16 09:29:26;;;;;;;59.30;27.20;;;;;;;7.99;100.00;97553.73;214379;1286;139138;-72
2022/11/16 09:34:28;;;;;;;56.40;24.90;;;;;;;7.98;100.00;97552.02;214678;1284;24422;-73
2022/11/16 09:39:31;;;;;;;57.90;25.00;;;;;;;8.00;100.00;97550.52;214459;1285;138484;-72
2022/11/16 09:45:03;;;;;;;71.50;29.30;;;;;;;7.98;100.00;97546.51;214682;1285;138832;-72
2022/11/16 09:50:17;;;;;;;82.90;31.00;;;;;;;8.04;100.00;97549.19;214457;1294;138752;-70
2022/11/16 09:55:24;;;;;;;84.30;32.90;;;;;;;8.07;100.00;97545.02;214656;1284;138983;-70
2022/11/16 10:00:29;;;;;;;68.10;27.40;;;;;;;8.04;100.00;97536.32;214790;1278;138688;-71
2022/11/16 10:06:05;;;;;;;82.50;30.70;;;;;;;8.04;100.00;97531.38;214769;1284;138623;-71
2022/11/16 10:11:16;;;;;;;84.60;31.10;;;;;;;8.05;100.00;97531.41;214881;1284;22471;-70
2022/11/16 10:16:47;;;;;;;77.50;29.10;;;;;;;8.04;100.00;97526.42;215671;1292;25359;-70
2022/11/16 10:22:08;;;;;;;89.10;33.20;;;;;;;8.02;100.00;97522.58;214646;1284;138583;-69
2022/11/16 10:27:26;;;;;;;86.40;33.10;;;;;;;8.04;100.00;97515.95;214579;1289;138781;-69
2022/11/16 10:32:32;;;;;;;83.20;32.50;;;;;;;8.04;100.00;97507.60;215070;1284;138710;-70
2022/11/16 10:37:38;;;;;;;85.80;33.10;;;;;;;8.01;100.00;97509.15;214581;1284;138668;-70
2022/11/16 10:42:40;;;;;;;79.50;29.00;;;;;;;8.00;100.00;97507.69;214705;1288;138578;-71
2022/11/16 10:48:15;;;;;;;78.50;31.20;;;;;;;8.01;100.00;97504.39;214861;1307;138847;-70
2022/11/16 10:53:35;;;;;;;97.30;34.20;;;;;;;8.00;100.00;97501.91;214453;1286;138614;-71
2022/11/16 10:59:05;;;;;;;102.80;37.70;;;;;;;7.97;100.00;97499.64;215686;1284;25360;-74
2022/11/16 11:04:23;;;;;;;101.20;34.90;;;;;;;7.93;100.00;97495.40;214918;1284;138152;-78
2022/11/16 11:09:26;;;;;;;132.30;42.80;;;;;;;7.87;100.00;97490.87;214713;1286;138990;-73
2022/11/16 11:14:31;;;;;;;120.20;40.80;;;;;;;7.81;100.00;97490.63;215313;1282;139248;-75
2022/11/16 11:19:33;;;;;;;101.10;38.40;;;;;;;7.71;100.00;97487.76;215665;1285;138704;-74
2022/11/16 11:24:35;;;;;;;104.70;42.20;;;;;;;7.60;100.00;97485.65;214779;1295;138662;-73
2022/11/16 11:29:51;;;;;;;84.70;33.00;;;;;;;7.51;100.00;97483.29;214453;1291;138758;-73
2022/11/16 11:34:55;;;;;;;79.80;32.90;;;;;;;7.42;100.00;97477.17;214868;1310;22512;-73
2022/11/16 11:40:26;;;;;;;69.40;30.30;;;;;;;7.39;100.00;97469.73;214492;1309;138336;-74
2022/11/16 11:45:38;;;;;;;58.20;24.80;;;;;;;7.37;100.00;97478.58;214652;1310;138626;-73
2022/11/16 11:50:49;;;;;;;54.60;24.10;;;;;;;7.33;100.00;97481.20;214488;1310;138519;-72
2022/11/16 11:55:56;;;;;;;55.20;23.50;;;;;;;7.28;100.00;97480.30;214516;1310;138533;-72
2022/11/16 12:01:34;;;;;;;50.30;20.50;;;;;;;7.21;100.00;97477.19;214785;1310;138720;-72
2022/11/16 12:07:01;;;;;;;42.30;20.20;;;;;;;7.14;100.00;97468.48;214388;1302;138495;-72
2022/11/16 12:12:21;;;;;;;44.80;19.40;;;;;;;7.10;100.00;97464.27;214794;1309;138611;-72
2022/11/16 12:17:37;;;;;;;41.20;16.40;;;;;;;7.04;100.00;97460.55;215264;1309;139016;-71
2022/11/16 12:23:07;;;;;;;25.70;15.10;;;;;;;7.01;100.00;97454.89;214806;1285;24266;-72
2022/11/16 12:28:40;;;;;;;24.20;12.10;;;;;;;6.92;100.00;97452.98;214473;1295;138056;-75
2022/11/16 12:33:57;;;;;;;23.00;11.20;;;;;;;6.85;100.00;97448.39;214583;1309;138404;-82
2022/11/16 12:39:25;;;;;;;18.00;9.90;;;;;;;6.81;100.00;97449.25;214750;1301;138499;-71
2022/11/16 12:44:36;;;;;;;14.20;7.60;;;;;;;6.74;100.00;97452.86;214775;1284;138828;-72
2022/11/16 12:50:16;;;;;;;11.10;7.00;;;;;;;6.65;100.00;97467.45;214769;1281;138644;-73
2022/11/16 12:55:41;;;;;;;12.20;6.50;;;;;;;6.54;100.00;97464.13;214630;1293;138454;-71
2022/11/16 13:00:48;;;;;;;10.10;6.40;;;;;;;6.46;100.00;97458.47;214324;1278;138382;-70
2022/11/16 13:06:05;;;;;;;11.50;6.30;;;;;;;6.40;100.00;97462.18;214525;1278;138624;-71
2022/11/16 13:11:13;;;;;;;10.30;5.80;;;;;;;6.36;100.00;97467.41;214423;1298;22569;-72
2022/11/16 13:16:16;;;;;;;9.00;6.20;;;;;;;6.33;100.00;97457.74;215358;1301;22679;-72
2022/11/16 13:21:40;;;;;;;12.00;6.60;;;;;;;6.32;100.00;97456.20;214351;1285;137938;-72
2022/11/16 13:27:04;;;;;;;14.70;8.00;;;;;;;6.32;100.00;97454.89;214356;1309;138397;-72
2022/11/16 13:32:23;;;;;;;14.00;8.00;;;;;;;6.31;100.00;97449.90;214176;1310;138381;-72
2022/11/16 13:37:37;;;;;;;13.70;8.20;;;;;;;6.30;100.00;97447.73;214211;1309;138797;-72
2022/11/16 13:42:57;;;;;;;17.00;9.10;;;;;;;6.29;100.00;97443.11;214386;1309;138822;-72
2022/11/16 13:48:02;;;;;;;17.80;9.90;;;;;;;6.30;100.00;97437.15;214574;1285;139132;-71
2022/11/16 13:53:13;;;;;;;18.20;9.90;;;;;;;6.30;100.00;97432.31;214971;1309;24350;-72
2022/11/16 13:58:42;;;;;;;15.10;8.00;;;;;;;6.30;100.00;97431.73;214413;1307;25476;-71
2022/11/16 14:03:50;;;;;;;14.10;7.70;;;;;;;6.28;100.00;97427.07;214514;1295;138398;-71
2022/11/16 14:08:54;;;;;;;17.30;8.40;;;;;;;6.25;100.00;97427.29;214461;1284;138168;-71
2022/11/16 14:13:59;;;;;;;17.70;9.50;;;;;;;6.23;100.00;97422.45;214835;1310;138894;-75
2022/11/16 14:19:04;;;;;;;17.60;8.60;;;;;;;6.20;100.00;97414.09;214793;1284;138498;-68
2022/11/16 14:24:24;;;;;;;13.60;8.30;;;;;;;6.18;100.00;97410.92;214518;1290;138362;-71
2022/11/16 14:29:54;;;;;;;15.20;9.40;;;;;;;6.15;100.00;97401.29;214647;1285;24383;-70
2022/11/16 14:34:59;;;;;;;17.20;8.10;;;;;;;6.15;100.00;97388.90;214599;1281;24455;-72
2022/11/16 14:40:15;;;;;;;23.00;10.50;;;;;;;6.15;100.00;97383.27;214771;1285;22491;-73
2022/11/16 14:45:28;;;;;;;17.20;9.60;;;;;;;6.12;100.00;97380.35;215816;1309;22527;-70
2022/11/16 14:50:32;;;;;;;19.90;12.10;;;;;;;6.12;100.00;97382.10;214481;1294;22940;-70
2022/11/16 14:55:45;;;;;;;28.50;15.10;;;;;;;6.08;100.00;97388.17;214710;1310;22542;-74
2022/11/16 15:00:57;;;;;;;21.10;12.50;;;;;;;6.04;100.00;97388.56;214874;1278;22947;-70
2022/11/16 15:06:01;;;;;;;21.10;11.00;;;;;;;6.02;100.00;97390.30;214431;1292;22586;-71
2022/11/16 15:11:07;;;;;;;18.90;10.10;;;;;;;5.99;100.00;97394.98;214133;1309;22695;-71
2022/11/16 15:16:13;;;;;;;16.20;9.40;;;;;;;5.97;100.00;97398.23;214113;1310;23805;-72
2022/11/16 15:21:22;;;;;;;19.50;9.70;;;;;;;5.94;100.00;97402.41;214454;1310;24232;-73
2022/11/16 15:26:24;;;;;;;19.80;10.20;;;;;;;5.91;100.00;97398.89;214033;1310;25422;-72
2022/11/16 15:31:27;;;;;;;18.40;10.20;;;;;;;5.89;100.00;97403.41;213938;1309;25388;-70
2022/11/16 15:36:40;;;;;;;12.50;8.50;;;;;;;5.85;100.00;97401.96;214113;1310;25252;-70
2022/11/16 15:41:42;;;;;;;14.50;9.30;;;;;;;5.79;100.00;97405.04;214085;1310;22529;-72
2022/11/16 15:46:47;;;;;;;18.00;10.20;;;;;;;5.76;100.00;97403.40;213807;1310;25363;-71
2022/11/16 15:51:49;;;;;;;18.90;11.20;;;;;;;5.75;100.00;97403.84;214014;1309;22485;-70
2022/11/16 15:56:55;;;;;;;18.30;11.40;;;;;;;5.75;100.00;97399.10;214327;1308;22480;-71
2022/11/16 16:01:57;;;;;;;18.30;10.60;;;;;;;5.77;100.00;97399.55;214161;1310;22505;-70
2022/11/16 16:06:59;;;;;;;17.70;11.10;;;;;;;5.78;100.00;97398.52;214219;1310;22952;-70
2022/11/16 16:12:22;;;;;;;20.50;10.50;;;;;;;5.77;100.00;97399.28;214215;1309;23300;-70
2022/11/16 16:17:29;;;;;;;18.30;11.50;;;;;;;5.74;100.00;97399.43;214137;1309;24070;-71
2022/11/16 16:22:35;;;;;;;19.10;11.70;;;;;;;5.71;100.00;97400.81;214146;1310;25467;-71
2022/11/16 16:27:39;;;;;;;18.20;11.70;;;;;;;5.67;100.00;97406.98;214178;1309;22938;-72
2022/11/16 16:32:41;;;;;;;16.20;10.60;;;;;;;5.64;100.00;97405.85;214131;1309;24542;-71
2022/11/16 16:37:43;;;;;;;18.30;11.20;;;;;;;5.60;100.00;97400.45;214179;1310;22952;-72
2022/11/16 16:42:48;;;;;;;19.20;11.40;;;;;;;5.58;100.00;97396.13;213980;1310;22629;-72
2022/11/16 16:47:50;;;;;;;23.90;12.20;;;;;;;5.56;100.00;97399.40;214325;1310;24353;-71
2022/11/16 16:52:52;;;;;;;19.30;10.90;;;;;;;5.52;100.00;97400.02;214218;1310;22565;-71
2022/11/16 16:57:56;;;;;;;25.00;13.30;;;;;;;5.47;100.00;97394.95;214240;1310;27297;-71
2022/11/16 17:02:58;;;;;;;21.90;11.70;;;;;;;5.44;100.00;97394.95;214247;1310;22478;-71
2022/11/16 17:08:00;;;;;;;21.80;12.00;;;;;;;5.44;100.00;97397.29;214317;1310;22569;-71
2022/11/16 17:13:02;;;;;;;23.70;13.00;;;;;;;5.43;100.00;97401.88;214122;1310;22532;-74
2022/11/16 17:18:04;;;;;;;28.90;16.40;;;;;;;5.41;100.00;97401.00;214269;1297;22557;-75
2022/11/16 17:23:06;;;;;;;25.90;14.60;;;;;;;5.42;100.00;97407.00;214195;1304;22482;-72
2022/11/16 17:28:08;;;;;;;33.80;17.70;;;;;;;5.42;100.00;97404.66;214399;1310;22946;-73
2022/11/16 17:33:10;;;;;;;26.30;14.30;;;;;;;5.41;100.00;97401.11;213996;1309;22536;-73
2022/11/16 17:38:12;;;;;;;21.60;12.10;;;;;;;5.45;100.00;97395.48;214293;1310;25298;-73
2022/11/16 17:43:13;;;;;;;26.30;15.10;;;;;;;5.49;100.00;97391.96;214173;1310;24541;-73
2022/11/16 17:48:15;;;;;;;32.60;19.20;;;;;;;5.49;100.00;97393.27;214396;1309;25329;-72
2022/11/16 17:53:17;;;;;;;26.70;15.80;;;;;;;5.48;100.00;97388.84;214190;1304;22501;-74
2022/11/16 17:58:20;;;;;;;22.00;13.10;;;;;;;5.46;100.00;97390.77;214282;1309;24310;-73
2022/11/16 18:03:27;;;;;;;28.00;14.40;;;;;;;5.47;100.00;97396.77;214263;1310;22494;-73
2022/11/16 18:08:30;;;;;;;26.10;14.80;;;;;;;5.47;100.00;97400.16;214310;1310;22626;-72
2022/11/16 18:13:33;;;;;;;20.80;12.70;;;;;;;5.45;100.00;97402.27;214296;1310;24113;-73
2022/11/16 18:18:37;;;;;;;21.70;12.40;;;;;;;5.46;100.00;97392.69;215089;1310;23161;-73
2022/11/16 18:23:39;;;;;;;25.20;14.50;;;;;;;5.47;100.00;97392.94;214260;1310;24358;-73
2022/11/16 18:28:44;;;;;;;24.90;14.50;;;;;;;5.47;100.00;97394.80;214181;1307;22472;-74
2022/11/16 18:33:48;;;;;;;28.90;15.10;;;;;;;5.47;100.00;97395.55;214163;1310;22490;-72
2022/11/16 18:38:50;;;;;;;21.60;13.10;;;;;;;5.48;100.00;97394.42;214192;1310;22602;-72
2022/11/16 18:43:54;;;;;;;23.40;14.20;;;;;;;5.43;100.00;97389.34;214323;1310;22478;-73
2022/11/16 18:48:56;;;;;;;19.20;10.70;;;;;;;5.40;100.00;97390.39;214214;1309;24421;-72
2022/11/16 18:53:58;;;;;;;19.00;10.40;;;;;;;5.39;100.00;97397.85;214269;1310;22514;-74
2022/11/16 18:59:01;;;;;;;17.00;9.90;;;;;;;5.37;100.00;97399.88;214174;1310;23036;-73
2022/11/16 19:04:03;;;;;;;18.30;10.90;;;;;;;5.36;100.00;97393.21;213928;1310;25265;-71
2022/11/16 19:09:08;;;;;;;16.30;8.90;;;;;;;5.30;100.00;97393.82;214066;1310;22521;-73
2022/11/16 19:14:10;;;;;;;20.90;10.40;;;;;;;5.23;100.00;97394.99;214249;1310;25467;-72
2022/11/16 19:19:12;;;;;;;13.40;7.40;;;;;;;5.17;100.00;97394.05;214084;1307;22730;-74
2022/11/16 19:24:14;;;;;;;12.40;7.20;;;;;;;5.12;100.00;97396.77;214200;1310;22475;-72
2022/11/16 19:29:16;;;;;;;12.80;7.80;;;;;;;5.05;100.00;97396.30;214108;1310;24126;-71
2022/11/16 19:34:18;;;;;;;13.70;7.60;;;;;;;4.98;100.00;97396.48;214035;1310;22554;-70
2022/11/16 19:39:20;;;;;;;10.50;6.00;;;;;;;4.88;100.00;97400.55;214084;1310;26001;-71
2022/11/16 19:44:22;;;;;;;11.70;7.80;;;;;;;4.76;100.00;97402.64;214264;1310;22468;-71
2022/11/16 19:49:25;;;;;;;12.80;7.50;;;;;;;4.69;100.00;97405.59;214207;1308;22497;-72
2022/11/16 19:54:26;;;;;;;10.90;6.50;;;;;;;4.59;100.00;97403.20;214259;1308;22724;-71
2022/11/16 19:59:28;;;;;;;9.90;6.30;;;;;;;4.50;100.00;97395.94;214104;1310;25464;-72
2022/11/16 20:04:34;;;;;;;6.40;3.80;;;;;;;4.39;100.00;97399.08;214149;1309;22460;-72
2022/11/16 20:09:36;;;;;;;9.20;5.40;;;;;;;4.32;100.00;97394.53;214098;1310;22465;-72
2022/11/16 20:14:38;;;;;;;10.00;5.50;;;;;;;4.22;100.00;97394.04;214400;1309;22468;-72
2022/11/16 20:19:40;;;;;;;15.10;7.70;;;;;;;4.12;100.00;97396.85;213973;1309;27257;-72
2022/11/16 20:24:42;;;;;;;11.70;6.70;;;;;;;4.01;100.00;97404.84;214083;1309;22973;-71
2022/11/16 20:29:44;;;;;;;11.50;6.90;;;;;;;3.92;100.00;97408.73;214194;1310;25222;-74
2022/11/16 20:34:46;;;;;;;12.70;7.10;;;;;;;3.84;100.00;97409.00;214290;1310;24671;-72
2022/11/16 20:39:51;;;;;;;12.50;7.30;;;;;;;3.79;100.00;97404.77;214182;1310;22471;-76
2022/11/16 20:44:53;;;;;;;10.60;6.40;;;;;;;3.74;100.00;97406.88;213987;1309;22459;-72
2022/11/16 20:49:57;;;;;;;11.40;6.50;;;;;;;3.67;100.00;97414.98;213966;1310;22549;-72
2022/11/16 20:54:59;;;;;;;11.80;6.30;;;;;;;3.61;100.00;97415.11;213928;1310;22477;-72
2022/11/16 21:00:01;;;;;;;14.70;8.10;;;;;;;3.52;100.00;97413.59;214475;1310;23733;-71
2022/11/16 21:05:03;;;;;;;11.10;6.30;;;;;;;3.48;100.00;97412.61;214291;1310;25480;-72
2022/11/16 21:10:18;;;;;;;9.60;6.40;;;;;;;3.41;100.00;97404.77;214388;1301;22494;-72
2022/11/16 21:15:20;;;;;;;14.30;8.40;;;;;;;3.28;100.00;97407.18;214416;1310;25218;-72
2022/11/16 21:20:21;;;;;;;17.50;9.20;;;;;;;3.19;100.00;97409.23;214281;1309;22474;-72
2022/11/16 21:25:29;;;;;;;16.90;7.80;;;;;;;3.13;100.00;97409.33;214237;1306;25419;-70
2022/11/16 21:30:31;;;;;;;19.50;9.90;;;;;;;3.06;100.00;97405.29;214048;1310;22624;-72
2022/11/16 21:35:33;;;;;;;17.90;10.10;;;;;;;3.05;100.00;97408.05;213997;1310;24324;-73
2022/11/16 21:40:35;;;;;;;19.50;10.70;;;;;;;2.99;100.00;97411.46;214161;1310;22532;-73
2022/11/16 21:45:36;;;;;;;18.10;9.70;;;;;;;2.91;100.00;97410.13;214085;1310;25346;-73
2022/11/16 21:50:40;;;;;;;14.20;9.50;;;;;;;2.83;100.00;97412.33;214261;1310;22498;-72
2022/11/16 21:55:48;;;;;;;18.20;10.60;;;;;;;2.80;100.00;97417.95;214148;1310;22467;-70
2022/11/16 22:00:55;;;;;;;17.00;10.10;;;;;;;2.78;100.00;97418.70;214462;1310;22527;-72
2022/11/16 22:11:20;;;;;;;20.30;11.40;;;;;;;2.76;100.00;97420.39;214304;1310;22481;-71
2022/11/16 22:16:25;;;;;;;15.80;9.50;;;;;;;2.71;100.00;97424.48;214227;1308;22696;-75
2022/11/16 22:21:27;;;;;;;10.90;7.50;;;;;;;2.68;100.00;97428.04;214079;1310;25394;-73
2022/11/16 22:26:29;;;;;;;16.80;9.00;;;;;;;2.65;100.00;97428.41;214274;1310;25320;-72
2022/11/16 22:31:32;;;;;;;17.10;9.60;;;;;;;2.63;100.00;97439.27;214145;1308;22483;-71
2022/11/16 22:36:34;;;;;;;14.60;8.60;;;;;;;2.63;100.00;97444.45;214089;1310;22498;-73
2022/11/16 22:41:36;;;;;;;16.60;10.00;;;;;;;2.59;100.00;97445.89;214228;1310;144341;-72
2022/11/16 22:46:38;;;;;;;19.30;10.20;;;;;;;2.54;100.00;97442.73;214181;1310;25345;-72
2022/11/16 22:51:40;;;;;;;14.80;8.00;;;;;;;2.49;100.00;97444.80;214169;1310;25395;-72
2022/11/16 22:56:42;;;;;;;13.00;8.20;;;;;;;2.44;100.00;97455.27;214291;1310;24276;-72
2022/11/16 23:01:44;;;;;;;15.30;8.30;;;;;;;2.37;100.00;97453.70;214205;1310;24306;-73
2022/11/16 23:06:46;;;;;;;12.50;7.40;;;;;;;2.36;100.00;97441.70;214113;1310;25276;-72
2022/11/16 23:17:09;;;;;;;13.60;7.50;;;;;;;2.34;100.00;97438.02;214327;1310;26342;-73
2022/11/16 23:27:54;;;;;;;13.30;6.40;;;;;;;2.27;100.00;97440.81;214243;1310;25665;-73
2022/11/16 23:32:56;;;;;;;12.50;6.70;;;;;;;2.27;100.00;97436.64;214165;1309;22583;-73
2022/11/16 23:38:00;;;;;;;17.40;8.00;;;;;;;2.26;100.00;97436.06;214070;1310;22476;-74
2022/11/16 23:48:23;;;;;;;13.20;6.50;;;;;;;2.22;100.00;97425.55;214049;1310;25348;-74
2022/11/16 23:53:25;;;;;;;15.80;8.50;;;;;;;2.26;100.00;97419.27;214239;1310;27441;-73
2022/11/16 23:58:27;;;;;;;13.00;7.00;;;;;;;2.29;100.00;97419.52;214236;1310;22568;-73
